Time;durP1;ratioP1;P1;durP2;ratioP2;P2;SDS_P1;SDS_P2;PMS_P1;PMS_P2;Temp;Humidity;BMP_temperature;BMP_pressure;BME280_temperature;BME280_humidity;BME280_pressure;Samples;Min_cycle;Max_cycle;Signal;HPM_P1;HPM_P2
2022/11/15 00:00:38;;;;;;;0.90;0.90;;;10.90;99.90;;;;;;5027194;28;20205;-66
2022/11/15 00:03:05;;;;;;;0.73;0.73;;;11.00;99.90;;;;;;5022537;28;20276;-65
2022/11/15 00:05:35;;;;;;;0.80;0.80;;;11.00;99.90;;;;;;5018379;28;20209;-65
2022/11/15 00:08:02;;;;;;;1.00;1.00;;;10.90;99.90;;;;;;5011733;28;20202;-64
2022/11/15 00:10:29;;;;;;;0.90;0.90;;;10.90;99.90;;;;;;5013808;28;20224;-65
2022/11/15 00:12:56;;;;;;;1.00;1.00;;;10.90;99.90;;;;;;5017698;28;20221;-64
2022/11/15 00:15:23;;;;;;;0.97;0.97;;;10.80;99.90;;;;;;5021196;28;20208;-66
2022/11/15 00:17:51;;;;;;;1.00;1.00;;;10.90;99.90;;;;;;5008988;28;20201;-66
2022/11/15 00:20:18;;;;;;;1.00;1.00;;;10.80;99.90;;;;;;5013726;28;20213;-66
2022/11/15 00:22:45;;;;;;;0.90;0.90;;;10.90;99.90;;;;;;5014060;28;20227;-64
2022/11/15 00:25:12;;;;;;;0.90;0.90;;;10.90;99.90;;;;;;5013055;28;20209;-65
2022/11/15 00:27:38;;;;;;;0.80;0.80;;;11.10;99.90;;;;;;5014579;28;20211;-63
2022/11/15 00:30:06;;;;;;;0.73;0.73;;;10.90;99.90;;;;;;5013821;28;20595;-65
2022/11/15 00:32:33;;;;;;;0.83;0.83;;;11.00;99.90;;;;;;5014235;28;20248;-65
2022/11/15 00:35:01;;;;;;;0.80;0.80;;;11.00;99.90;;;;;;5013036;28;20213;-64
2022/11/15 00:37:28;;;;;;;1.00;1.00;;;11.10;99.90;;;;;;5013493;28;20572;-66
2022/11/15 00:39:55;;;;;;;0.80;0.80;;;11.00;99.90;;;;;;5013322;28;20585;-63
2022/11/15 00:42:22;;;;;;;0.90;0.90;;;11.10;99.90;;;;;;5012936;28;20679;-64
2022/11/15 00:44:49;;;;;;;0.80;0.80;;;11.10;99.90;;;;;;5012610;28;20212;-65
2022/11/15 00:47:16;;;;;;;1.00;1.00;;;11.10;99.90;;;;;;5003475;28;20219;-65
2022/11/15 00:49:43;;;;;;;2.50;1.00;;;11.00;99.90;;;;;;5006662;28;20229;-64
2022/11/15 00:52:11;;;;;;;0.80;0.80;;;11.10;99.90;;;;;;5002701;28;20240;-63
2022/11/15 00:54:38;;;;;;;0.80;0.80;;;11.20;99.90;;;;;;5004588;28;20212;-62
2022/11/15 00:57:04;;;;;;;1.00;1.00;;;11.20;99.90;;;;;;5003445;28;20211;-64
2022/11/15 00:59:31;;;;;;;0.57;0.57;;;11.20;99.90;;;;;;5000994;28;20231;-65
2022/11/15 01:01:58;;;;;;;1.07;0.97;;;11.20;99.90;;;;;;4996471;28;20372;-65
2022/11/15 01:04:25;;;;;;;0.97;0.90;;;11.20;99.90;;;;;;4998903;28;20212;-65
2022/11/15 01:06:52;;;;;;;1.00;1.00;;;11.20;99.90;;;;;;4998533;28;20208;-65
2022/11/15 01:09:20;;;;;;;0.70;0.70;;;11.20;99.90;;;;;;4997856;28;20243;-65
2022/11/15 01:11:47;;;;;;;1.00;1.00;;;11.20;99.90;;;;;;5004610;28;20232;-64
2022/11/15 01:14:14;;;;;;;1.00;1.00;;;11.30;99.90;;;;;;5009307;28;20289;-66
2022/11/15 01:16:41;;;;;;;1.17;1.10;;;11.30;99.90;;;;;;5003343;28;20296;-64
2022/11/15 01:19:08;;;;;;;0.90;0.90;;;11.30;99.90;;;;;;5002936;28;21048;-65
2022/11/15 01:21:35;;;;;;;2.20;1.00;;;11.30;99.90;;;;;;5007749;28;20301;-65
2022/11/15 01:24:02;;;;;;;0.83;0.80;;;11.30;99.90;;;;;;5013312;28;20656;-63
2022/11/15 01:26:30;;;;;;;0.87;0.83;;;11.30;99.90;;;;;;5014384;28;20193;-65
2022/11/15 01:28:57;;;;;;;0.90;0.90;;;11.30;99.90;;;;;;5013151;28;20225;-64
2022/11/15 01:31:24;;;;;;;0.87;0.87;;;11.30;99.90;;;;;;5013481;28;20227;-65
2022/11/15 01:33:50;;;;;;;1.40;0.90;;;11.40;99.90;;;;;;5012764;28;20702;-64
2022/11/15 01:36:21;;;;;;;0.70;0.70;;;11.40;99.90;;;;;;5012462;28;20291;-64
2022/11/15 01:38:53;;;;;;;0.83;0.83;;;11.30;99.90;;;;;;5012546;28;20232;-65
2022/11/15 01:41:22;;;;;;;0.80;0.80;;;11.40;99.90;;;;;;5012688;28;20215;-65
2022/11/15 01:43:53;;;;;;;0.60;0.60;;;11.40;99.90;;;;;;5003880;28;20201;-65
2022/11/15 01:46:29;;;;;;;0.80;0.80;;;11.40;99.90;;;;;;5011610;28;20271;-65
2022/11/15 01:48:58;;;;;;;0.90;0.90;;;11.30;99.90;;;;;;5011867;28;20248;-65
2022/11/15 01:51:29;;;;;;;0.83;0.83;;;11.40;99.90;;;;;;5011987;28;20637;-64
2022/11/15 01:54:01;;;;;;;1.33;1.00;;;11.40;99.90;;;;;;5012641;28;20684;-64
2022/11/15 01:56:31;;;;;;;0.67;0.67;;;11.40;99.90;;;;;;5004649;28;20295;-64
2022/11/15 01:59:01;;;;;;;0.60;0.60;;;11.40;99.90;;;;;;5012093;28;20224;-65
2022/11/15 02:01:31;;;;;;;0.80;0.80;;;11.40;99.90;;;;;;5018766;28;20201;-64
2022/11/15 02:04:00;;;;;;;0.80;0.80;;;11.40;99.90;;;;;;5015540;28;20293;-65
2022/11/15 02:06:27;;;;;;;0.87;0.87;;;11.30;99.90;;;;;;5013364;28;20204;-64
2022/11/15 02:08:55;;;;;;;0.90;0.90;;;11.30;99.90;;;;;;5013760;28;20237;-64
2022/11/15 02:11:22;;;;;;;0.73;0.73;;;11.20;99.90;;;;;;5013877;28;20308;-64
2022/11/15 02:13:49;;;;;;;1.00;1.00;;;11.20;99.90;;;;;;5016934;28;20300;-65
2022/11/15 02:16:27;;;;;;;0.80;0.80;;;11.20;99.90;;;;;;5026327;28;20300;-65
2022/11/15 02:19:00;;;;;;;0.80;0.80;;;11.30;99.90;;;;;;5025031;28;20630;-64
2022/11/15 02:21:34;;;;;;;1.10;1.10;;;11.30;99.90;;;;;;5024160;28;20185;-65
2022/11/15 02:24:41;;;;;;;0.80;0.80;;;11.30;99.90;;;;;;5015659;28;20205;-63
2022/11/15 02:27:42;;;;;;;1.03;0.97;;;11.20;99.90;;;;;;5010850;28;20288;-63
2022/11/15 02:30:22;;;;;;;0.90;0.90;;;11.30;99.90;;;;;;5017269;28;20231;-63
2022/11/15 02:32:54;;;;;;;1.27;1.00;;;11.30;99.90;;;;;;5016547;28;20268;-65
2022/11/15 02:35:30;;;;;;;0.80;0.80;;;11.30;99.90;;;;;;5012827;28;20205;-64
2022/11/15 02:38:00;;;;;;;0.80;0.80;;;11.30;99.90;;;;;;5013167;28;20315;-64
2022/11/15 02:40:36;;;;;;;1.77;0.80;;;11.30;99.90;;;;;;5011126;28;20200;-63
2022/11/15 02:46:02;;;;;;;0.70;0.70;;;11.30;99.90;;;;;;5014613;28;20629;-65
2022/11/15 02:48:30;;;;;;;0.80;0.80;;;11.30;99.90;;;;;;5015129;28;20728;-64
2022/11/15 02:50:57;;;;;;;2.07;1.10;;;11.40;99.90;;;;;;5015026;28;20310;-65
2022/11/15 02:53:26;;;;;;;0.70;0.70;;;11.40;99.90;;;;;;5015303;28;20198;-63
2022/11/15 02:55:55;;;;;;;1.20;0.93;;;11.50;99.90;;;;;;5015122;28;20209;-65
2022/11/15 02:58:48;;;;;;;0.70;0.70;;;11.50;99.90;;;;;;5015328;28;20223;-66
2022/11/15 03:01:26;;;;;;;1.20;1.10;;;11.40;99.90;;;;;;5004939;28;20288;-66
2022/11/15 03:04:04;;;;;;;0.90;0.90;;;11.50;99.90;;;;;;5015270;28;20205;-64
2022/11/15 03:06:39;;;;;;;0.80;0.80;;;11.40;99.90;;;;;;5008619;28;20297;-65
2022/11/15 03:09:12;;;;;;;0.87;0.87;;;11.50;99.90;;;;;;5014746;28;20272;-64
2022/11/15 03:11:45;;;;;;;0.97;0.97;;;11.60;99.90;;;;;;5008578;28;20227;-65
2022/11/15 03:14:21;;;;;;;0.70;0.70;;;11.60;99.90;;;;;;5014129;28;20205;-65
2022/11/15 03:16:58;;;;;;;0.80;0.80;;;11.60;99.90;;;;;;5010057;28;20209;-66
2022/11/15 03:19:31;;;;;;;0.70;0.70;;;11.60;99.90;;;;;;5015270;28;20225;-65
2022/11/15 03:22:01;;;;;;;0.90;0.90;;;11.80;99.90;;;;;;5014763;28;20193;-64
2022/11/15 03:24:31;;;;;;;0.70;0.70;;;11.60;99.90;;;;;;5014121;28;20571;-64
2022/11/15 03:27:01;;;;;;;0.70;0.70;;;11.60;99.90;;;;;;5014017;28;20662;-65
2022/11/15 03:29:33;;;;;;;0.80;0.80;;;11.70;99.90;;;;;;5015306;28;20225;-64
2022/11/15 03:32:04;;;;;;;1.23;0.70;;;11.70;99.90;;;;;;5016148;28;20308;-63
2022/11/15 03:34:37;;;;;;;0.70;0.70;;;11.70;99.90;;;;;;5015406;28;20212;-65
2022/11/15 03:37:04;;;;;;;0.80;0.80;;;11.80;99.90;;;;;;5016362;28;20242;-66
2022/11/15 03:39:31;;;;;;;0.80;0.80;;;11.70;99.90;;;;;;5019929;28;20289;-68
2022/11/15 03:42:07;;;;;;;0.90;0.90;;;11.80;99.90;;;;;;5019862;28;20208;-65
2022/11/15 03:44:41;;;;;;;0.80;0.80;;;11.80;99.90;;;;;;5016294;28;20213;-65
2022/11/15 03:47:13;;;;;;;0.80;0.80;;;11.80;99.90;;;;;;5018334;28;20212;-64
2022/11/15 03:49:45;;;;;;;0.70;0.70;;;11.80;99.90;;;;;;5017518;28;20319;-65
2022/11/15 03:52:12;;;;;;;0.73;0.73;;;11.80;99.90;;;;;;5015106;28;20342;-64
2022/11/15 03:54:49;;;;;;;1.20;1.10;;;11.80;99.90;;;;;;5014312;28;20244;-65
2022/11/15 03:57:16;;;;;;;0.87;0.87;;;11.80;99.90;;;;;;5015445;28;20249;-63
2022/11/15 03:59:42;;;;;;;0.73;0.73;;;11.80;99.90;;;;;;5015233;28;20240;-64
2022/11/15 04:02:11;;;;;;;1.10;1.00;;;11.80;99.90;;;;;;5014463;28;20197;-64
2022/11/15 04:04:38;;;;;;;0.90;0.90;;;12.10;99.90;;;;;;5020697;28;20273;-65
2022/11/15 04:07:04;;;;;;;0.80;0.80;;;11.80;99.90;;;;;;5019523;28;20491;-66
2022/11/15 04:09:31;;;;;;;0.80;0.80;;;11.80;99.90;;;;;;5013849;28;20237;-64
2022/11/15 04:11:58;;;;;;;0.93;0.93;;;11.80;99.90;;;;;;5014276;28;20271;-65
2022/11/15 04:14:25;;;;;;;1.10;1.10;;;11.80;99.90;;;;;;5013421;28;20205;-64
2022/11/15 04:16:52;;;;;;;0.60;0.60;;;11.70;99.90;;;;;;5014166;28;20215;-65
2022/11/15 04:24:48;;;;;;;0.90;0.90;;;11.70;99.90;;;;;;5014697;28;20228;-65
2022/11/15 04:27:15;;;;;;;0.90;0.90;;;11.80;99.90;;;;;;5017481;28;20292;-64
2022/11/15 04:29:42;;;;;;;0.70;0.70;;;11.80;99.90;;;;;;5025563;28;20339;-64
2022/11/15 04:32:09;;;;;;;0.83;0.83;;;11.80;99.90;;;;;;5019189;28;20225;-65
2022/11/15 04:34:38;;;;;;;0.80;0.80;;;11.90;99.90;;;;;;5014138;28;20209;-64
2022/11/15 04:37:13;;;;;;;0.70;0.70;;;11.90;99.90;;;;;;5013726;28;20213;-66
2022/11/15 04:39:41;;;;;;;0.70;0.70;;;11.90;99.90;;;;;;5016577;28;20272;-65
2022/11/15 04:42:08;;;;;;;0.73;0.70;;;12.10;99.90;;;;;;5004294;28;20221;-64
2022/11/15 04:44:35;;;;;;;0.70;0.70;;;12.20;99.90;;;;;;5017856;28;20205;-64
2022/11/15 04:47:02;;;;;;;0.70;0.70;;;12.20;99.90;;;;;;5019237;28;20205;-64
2022/11/15 04:49:29;;;;;;;0.50;0.50;;;12.30;99.90;;;;;;5015679;28;20695;-66
2022/11/15 04:51:57;;;;;;;0.50;0.50;;;12.30;99.90;;;;;;5015003;28;20228;-65
2022/11/15 04:54:24;;;;;;;0.77;0.77;;;12.40;99.90;;;;;;5015372;28;20231;-66
2022/11/15 04:56:51;;;;;;;0.80;0.80;;;12.40;99.90;;;;;;5015174;28;20210;-64
2022/11/15 04:59:18;;;;;;;0.70;0.70;;;12.40;99.90;;;;;;5014606;28;20247;-65
2022/11/15 05:01:44;;;;;;;0.60;0.60;;;12.50;99.90;;;;;;5013450;28;20283;-65
2022/11/15 05:04:19;;;;;;;0.80;0.80;;;12.50;99.90;;;;;;5013008;28;20204;-66
2022/11/15 05:06:47;;;;;;;0.70;0.70;;;12.60;99.90;;;;;;5014151;28;20227;-65
2022/11/15 05:09:16;;;;;;;0.70;0.70;;;12.60;99.90;;;;;;5013323;28;20763;-65
2022/11/15 05:11:43;;;;;;;0.57;0.57;;;12.60;99.90;;;;;;5013431;28;20227;-65
2022/11/15 05:14:10;;;;;;;0.50;0.50;;;12.60;99.90;;;;;;5012123;28;20257;-65
2022/11/15 05:16:37;;;;;;;0.70;0.70;;;12.60;99.90;;;;;;5013192;28;20303;-66
2022/11/15 05:19:04;;;;;;;0.70;0.70;;;12.70;99.90;;;;;;5012923;28;20225;-64
2022/11/15 05:21:32;;;;;;;0.67;0.67;;;12.60;99.90;;;;;;5013367;28;20563;-65
2022/11/15 05:23:58;;;;;;;0.67;0.67;;;12.60;99.90;;;;;;5012609;28;20740;-65
2022/11/15 05:26:27;;;;;;;0.70;0.70;;;12.60;99.90;;;;;;5012052;28;20205;-64
2022/11/15 05:28:54;;;;;;;0.70;0.70;;;12.70;99.90;;;;;;5012940;28;20712;-65
2022/11/15 05:31:22;;;;;;;1.27;0.70;;;12.70;99.90;;;;;;5015261;28;20232;-66
2022/11/15 05:33:51;;;;;;;0.80;0.80;;;12.70;99.90;;;;;;5012749;28;20714;-66
2022/11/15 05:36:22;;;;;;;0.77;0.77;;;12.70;99.90;;;;;;5011892;28;20212;-64
2022/11/15 05:38:49;;;;;;;0.70;0.70;;;12.60;99.90;;;;;;5013365;28;20221;-64
2022/11/15 05:41:19;;;;;;;0.60;0.60;;;12.60;99.90;;;;;;5012275;28;20664;-66
2022/11/15 05:43:49;;;;;;;0.70;0.70;;;12.60;99.90;;;;;;5012668;28;20577;-65
2022/11/15 05:46:16;;;;;;;0.70;0.70;;;12.60;99.90;;;;;;5011689;28;20298;-64
2022/11/15 05:48:47;;;;;;;0.77;0.77;;;12.60;99.90;;;;;;5012241;28;20313;-66
2022/11/15 05:51:16;;;;;;;1.10;0.80;;;12.60;99.90;;;;;;5012520;28;20208;-65
2022/11/15 05:53:43;;;;;;;0.70;0.70;;;12.70;99.90;;;;;;5012605;28;20201;-65
2022/11/15 05:56:10;;;;;;;0.80;0.80;;;12.60;99.90;;;;;;5011912;28;20227;-64
2022/11/15 05:58:38;;;;;;;0.70;0.70;;;12.60;99.90;;;;;;5013244;28;20239;-65
2022/11/15 06:01:06;;;;;;;0.90;0.90;;;12.60;99.90;;;;;;5013373;28;20209;-65
2022/11/15 06:03:33;;;;;;;0.67;0.67;;;12.60;99.90;;;;;;5013762;28;20209;-64
2022/11/15 06:06:00;;;;;;;1.03;1.03;;;12.70;99.90;;;;;;5013475;28;20213;-66
2022/11/15 06:08:27;;;;;;;0.87;0.87;;;12.70;99.90;;;;;;5006004;28;20229;-65
2022/11/15 06:10:54;;;;;;;1.47;1.37;;;12.70;99.90;;;;;;5013702;28;20213;-65
2022/11/15 06:13:21;;;;;;;1.37;1.27;;;12.70;99.90;;;;;;5013096;28;20237;-64
2022/11/15 06:15:48;;;;;;;1.07;1.07;;;12.70;99.90;;;;;;5011991;28;20288;-64
2022/11/15 06:18:16;;;;;;;0.90;0.90;;;12.70;99.90;;;;;;5012546;28;20296;-64
2022/11/15 06:20:43;;;;;;;0.90;0.90;;;12.70;99.90;;;;;;5014625;28;20233;-66
2022/11/15 06:23:09;;;;;;;0.80;0.80;;;12.60;99.90;;;;;;5012223;28;20194;-64
2022/11/15 06:25:36;;;;;;;0.90;0.90;;;12.70;99.90;;;;;;5012307;28;20273;-65
2022/11/15 06:28:03;;;;;;;0.90;0.90;;;12.60;99.90;;;;;;5012003;28;20236;-64
2022/11/15 06:30:30;;;;;;;1.10;1.00;;;12.60;99.90;;;;;;5012269;28;20217;-63
2022/11/15 06:33:02;;;;;;;0.80;0.80;;;12.70;99.90;;;;;;5011849;28;20256;-64
2022/11/15 06:35:31;;;;;;;1.00;1.00;;;12.50;99.90;;;;;;5004104;28;20236;-63
2022/11/15 06:38:03;;;;;;;0.80;0.80;;;12.50;99.90;;;;;;5018038;28;20292;-64
2022/11/15 06:40:30;;;;;;;1.00;1.00;;;12.50;99.90;;;;;;5004529;28;20210;-64
2022/11/15 06:42:59;;;;;;;1.17;1.07;;;12.40;99.90;;;;;;5010147;28;20285;-65
2022/11/15 06:45:26;;;;;;;0.80;0.80;;;12.40;99.90;;;;;;5011626;28;20208;-64
2022/11/15 06:47:52;;;;;;;1.23;0.90;;;12.40;99.90;;;;;;5012193;28;20209;-64
2022/11/15 06:50:20;;;;;;;0.80;0.80;;;12.40;99.90;;;;;;5011468;28;20224;-64
2022/11/15 06:52:48;;;;;;;1.00;1.00;;;12.30;99.90;;;;;;5011848;28;20707;-64
2022/11/15 06:55:15;;;;;;;0.90;0.90;;;12.30;99.90;;;;;;5010743;28;20247;-64
2022/11/15 06:57:48;;;;;;;0.90;0.90;;;12.30;99.90;;;;;;5007200;28;20236;-65
2022/11/15 07:00:16;;;;;;;0.90;0.90;;;12.30;99.90;;;;;;5014899;28;20257;-64
2022/11/15 07:02:43;;;;;;;1.03;1.03;;;12.20;99.90;;;;;;5022875;28;20243;-63
2022/11/15 07:05:10;;;;;;;1.00;1.00;;;12.20;99.90;;;;;;5020180;28;20716;-65
2022/11/15 07:07:37;;;;;;;1.80;0.90;;;12.20;99.90;;;;;;5020104;28;20265;-65
2022/11/15 07:10:07;;;;;;;1.00;1.00;;;12.30;99.90;;;;;;5017711;28;20409;-63
2022/11/15 07:12:33;;;;;;;1.00;1.00;;;12.20;99.90;;;;;;5014526;28;20723;-65
2022/11/15 07:15:01;;;;;;;0.90;0.90;;;12.30;99.90;;;;;;5026691;28;20274;-64
2022/11/15 07:17:28;;;;;;;0.90;0.90;;;12.30;99.90;;;;;;5029810;28;20273;-65
2022/11/15 07:19:54;;;;;;;1.00;0.90;;;12.30;99.90;;;;;;5032713;28;20237;-65
2022/11/15 07:22:21;;;;;;;0.80;0.80;;;12.30;99.90;;;;;;5031899;28;20273;-64
2022/11/15 07:24:48;;;;;;;0.93;0.93;;;12.40;99.90;;;;;;5026143;28;20248;-64
2022/11/15 07:27:16;;;;;;;0.83;0.83;;;12.40;99.90;;;;;;5021890;28;20229;-65
2022/11/15 07:29:43;;;;;;;1.13;0.80;;;12.40;99.90;;;;;;5006727;28;20236;-64
2022/11/15 07:32:10;;;;;;;0.70;0.70;;;12.40;99.90;;;;;;5014687;28;20312;-64
2022/11/15 07:34:37;;;;;;;1.10;1.00;;;12.50;99.90;;;;;;5016970;28;20206;-64
2022/11/15 07:37:04;;;;;;;0.80;0.80;;;12.40;99.90;;;;;;5015955;28;20201;-63
2022/11/15 07:39:31;;;;;;;0.83;0.83;;;12.40;99.90;;;;;;5015627;28;20763;-63
2022/11/15 07:44:39;;;;;;;0.87;0.87;;;12.30;99.90;;;;;;5014760;28;20284;-65
2022/11/15 07:47:06;;;;;;;1.00;1.00;;;12.30;99.90;;;;;;5015822;28;20219;-64
2022/11/15 07:49:33;;;;;;;0.90;0.90;;;12.40;99.90;;;;;;5021372;28;20729;-65
2022/11/15 07:52:00;;;;;;;1.00;1.00;;;12.40;99.90;;;;;;5025975;28;20790;-62
2022/11/15 07:54:27;;;;;;;0.90;0.90;;;12.40;99.90;;;;;;5029987;28;20323;-64
2022/11/15 07:56:54;;;;;;;0.90;0.90;;;12.40;99.90;;;;;;5015692;28;20288;-63
2022/11/15 07:59:21;;;;;;;0.80;0.80;;;12.40;99.90;;;;;;5014806;28;20678;-64
2022/11/15 08:01:49;;;;;;;0.97;0.90;;;12.40;99.90;;;;;;5023143;28;20205;-64
2022/11/15 08:04:16;;;;;;;0.80;0.80;;;12.50;99.90;;;;;;5021144;28;20201;-64
2022/11/15 08:06:43;;;;;;;0.80;0.80;;;12.50;99.90;;;;;;5022752;28;20212;-63
2022/11/15 08:09:09;;;;;;;0.90;0.90;;;12.50;99.90;;;;;;5014546;28;20609;-63
2022/11/15 08:11:36;;;;;;;0.90;0.90;;;12.50;99.90;;;;;;5014790;28;20774;-64
2022/11/15 08:14:03;;;;;;;0.83;0.83;;;12.50;99.90;;;;;;5016661;28;20650;-64
2022/11/15 08:16:30;;;;;;;0.90;0.90;;;12.50;99.90;;;;;;5014935;28;20693;-64
2022/11/15 08:18:59;;;;;;;0.80;0.80;;;12.50;99.90;;;;;;5021833;28;20317;-62
2022/11/15 08:21:25;;;;;;;0.80;0.80;;;12.50;99.90;;;;;;5024155;28;20231;-64
2022/11/15 08:23:52;;;;;;;0.77;0.77;;;12.50;99.90;;;;;;5031192;28;20205;-65
2022/11/15 08:26:19;;;;;;;0.70;0.70;;;12.60;99.90;;;;;;5029834;28;20268;-65
2022/11/15 08:28:46;;;;;;;0.73;0.73;;;12.50;99.90;;;;;;5022524;28;20409;-64
2022/11/15 08:31:16;;;;;;;0.80;0.80;;;12.60;99.90;;;;;;5015596;28;20206;-64
2022/11/15 08:33:43;;;;;;;0.83;0.83;;;12.60;99.90;;;;;;5019984;28;20233;-64
2022/11/15 08:36:14;;;;;;;0.87;0.80;;;12.60;99.90;;;;;;5019095;28;20653;-62
2022/11/15 08:38:41;;;;;;;0.70;0.70;;;12.60;99.90;;;;;;5014683;28;20225;-63
2022/11/15 08:41:12;;;;;;;0.90;0.90;;;12.60;99.90;;;;;;5016859;28;20655;-63
2022/11/15 08:43:39;;;;;;;0.90;0.90;;;12.60;99.90;;;;;;5012887;28;20727;-63
2022/11/15 08:46:06;;;;;;;0.90;0.90;;;12.60;99.90;;;;;;5013594;28;20410;-65
2022/11/15 08:48:33;;;;;;;1.10;1.00;;;12.60;99.90;;;;;;5014318;28;20236;-64
2022/11/15 08:51:00;;;;;;;0.80;0.80;;;12.60;99.90;;;;;;5014308;28;20755;-64
2022/11/15 08:53:28;;;;;;;0.93;0.93;;;12.60;99.90;;;;;;5008964;28;20231;-65
2022/11/15 08:55:55;;;;;;;0.90;0.90;;;12.60;99.90;;;;;;5020797;28;20291;-65
2022/11/15 08:58:22;;;;;;;0.90;0.90;;;12.60;99.90;;;;;;5014431;28;20614;-67
2022/11/15 09:00:49;;;;;;;0.90;0.90;;;12.70;99.90;;;;;;5000696;28;20715;-64
2022/11/15 09:03:16;;;;;;;0.83;0.83;;;12.70;99.90;;;;;;5015634;28;20202;-63
2022/11/15 09:05:42;;;;;;;0.60;0.60;;;12.70;99.90;;;;;;5014100;28;20205;-63
2022/11/15 09:08:09;;;;;;;0.77;0.77;;;12.70;99.90;;;;;;5014909;28;20686;-63
2022/11/15 09:10:38;;;;;;;1.00;1.00;;;12.80;99.90;;;;;;5029650;28;20752;-64
2022/11/15 09:13:04;;;;;;;0.90;0.90;;;12.80;99.90;;;;;;5016467;28;20308;-65
2022/11/15 09:15:31;;;;;;;0.90;0.90;;;12.80;99.90;;;;;;5016969;28;20269;-64
2022/11/15 09:17:59;;;;;;;0.90;0.90;;;12.80;99.90;;;;;;5025196;28;20208;-65
2022/11/15 09:20:26;;;;;;;0.90;0.90;;;12.80;99.90;;;;;;5016537;28;20216;-64
2022/11/15 09:22:53;;;;;;;1.13;0.80;;;12.80;99.90;;;;;;5024504;28;20197;-64
2022/11/15 09:25:20;;;;;;;0.80;0.80;;;12.90;99.90;;;;;;5014766;28;20598;-64
2022/11/15 09:27:48;;;;;;;1.00;1.00;;;12.90;99.90;;;;;;5024534;28;20299;-65
2022/11/15 09:30:16;;;;;;;0.93;0.93;;;12.90;99.90;;;;;;5024301;28;20224;-63
2022/11/15 09:32:42;;;;;;;1.00;1.00;;;12.90;99.90;;;;;;5015966;28;20664;-63
2022/11/15 09:35:09;;;;;;;0.90;0.90;;;13.00;99.90;;;;;;5015298;28;20233;-63
2022/11/15 09:37:36;;;;;;;0.80;0.80;;;12.90;99.90;;;;;;5014637;28;20243;-63
2022/11/15 09:40:04;;;;;;;0.90;0.90;;;13.00;99.90;;;;;;5016823;28;20716;-63
2022/11/15 09:42:46;;;;;;;1.07;0.90;;;13.00;99.90;;;;;;5013572;28;20272;-63
2022/11/15 09:45:21;;;;;;;0.87;0.87;;;13.00;99.90;;;;;;5028615;28;20296;-63
2022/11/15 09:48:03;;;;;;;0.80;0.80;;;13.00;99.90;;;;;;5022591;28;20679;-62
2022/11/15 09:50:37;;;;;;;1.03;1.03;;;13.10;99.90;;;;;;5026715;28;20272;-63
2022/11/15 09:53:04;;;;;;;0.80;0.80;;;13.10;99.90;;;;;;5024093;28;20285;-65
2022/11/15 09:55:41;;;;;;;0.80;0.80;;;13.20;99.90;;;;;;5013823;28;20300;-62
2022/11/15 09:58:19;;;;;;;1.00;1.00;;;13.20;99.90;;;;;;5014369;28;20248;-65
2022/11/15 10:00:52;;;;;;;0.63;0.63;;;13.10;99.90;;;;;;5030428;23;20328;-64
2022/11/15 10:03:24;;;;;;;0.97;0.90;;;13.20;99.90;;;;;;5009835;28;20213;-63
2022/11/15 10:05:54;;;;;;;0.67;0.67;;;13.20;99.90;;;;;;5010955;28;20216;-63
2022/11/15 10:08:46;;;;;;;0.90;0.90;;;13.20;99.90;;;;;;5011833;28;20216;-62
2022/11/15 10:11:23;;;;;;;0.83;0.83;;;13.30;99.90;;;;;;5010486;28;20217;-63
2022/11/15 10:13:52;;;;;;;1.07;1.07;;;13.20;99.90;;;;;;5010871;28;20308;-64
2022/11/15 10:16:43;;;;;;;1.03;1.03;;;13.30;99.90;;;;;;5005077;28;20233;-63
2022/11/15 10:19:20;;;;;;;1.27;1.10;;;13.40;99.90;;;;;;5010834;28;20220;-62
2022/11/15 10:21:55;;;;;;;1.03;1.03;;;13.40;99.90;;;;;;5007885;28;20707;-62
2022/11/15 10:24:28;;;;;;;1.07;1.07;;;13.40;99.90;;;;;;5018633;28;20572;-61
2022/11/15 10:26:56;;;;;;;1.00;1.00;;;13.50;99.90;;;;;;5011820;28;20221;-62
2022/11/15 10:29:24;;;;;;;0.73;0.73;;;13.50;99.90;;;;;;5012107;28;20548;-62
2022/11/15 10:31:53;;;;;;;0.80;0.80;;;13.50;99.90;;;;;;5014076;28;20710;-62
2022/11/15 10:34:22;;;;;;;0.80;0.80;;;13.50;99.90;;;;;;5017628;28;20227;-63
2022/11/15 10:36:56;;;;;;;0.80;0.80;;;13.50;99.90;;;;;;5007814;28;20209;-65
2022/11/15 10:39:24;;;;;;;0.73;0.73;;;13.60;99.90;;;;;;5014829;28;20670;-63
2022/11/15 10:41:51;;;;;;;0.70;0.70;;;13.70;99.90;;;;;;5011773;28;20225;-63
2022/11/15 10:44:22;;;;;;;0.80;0.80;;;13.70;99.90;;;;;;5010808;28;20252;-62
2022/11/15 10:47:04;;;;;;;0.80;0.80;;;13.70;99.90;;;;;;5017749;28;20254;-63
2022/11/15 10:49:33;;;;;;;0.90;0.90;;;13.70;99.90;;;;;;5018232;28;20209;-63
2022/11/15 10:52:03;;;;;;;0.80;0.80;;;13.80;99.90;;;;;;5017950;28;20721;-65
2022/11/15 10:54:35;;;;;;;0.70;0.70;;;13.80;99.90;;;;;;5005261;28;20809;-62
2022/11/15 10:57:07;;;;;;;0.57;0.57;;;13.80;99.90;;;;;;5006064;28;20210;-64
2022/11/15 10:59:37;;;;;;;0.60;0.60;;;13.90;99.90;;;;;;5014070;28;20315;-62
2022/11/15 11:02:32;;;;;;;0.70;0.70;;;13.90;99.90;;;;;;5025521;28;20248;-63
2022/11/15 11:05:00;;;;;;;0.80;0.80;;;13.90;99.90;;;;;;5014546;28;20223;-62
2022/11/15 11:07:28;;;;;;;0.83;0.83;;;14.00;99.90;;;;;;5011380;28;20292;-63
2022/11/15 11:10:01;;;;;;;0.70;0.70;;;14.00;99.90;;;;;;5015511;28;20209;-63
2022/11/15 11:12:33;;;;;;;0.60;0.60;;;14.00;99.90;;;;;;5020910;28;20206;-62
2022/11/15 11:15:12;;;;;;;0.50;0.50;;;14.00;99.90;;;;;;5022533;28;20244;-65
2022/11/15 11:17:58;;;;;;;0.60;0.60;;;14.10;99.90;;;;;;5008478;28;20243;-63
2022/11/15 11:20:31;;;;;;;0.80;0.80;;;14.10;99.90;;;;;;5015482;28;20320;-63
2022/11/15 11:23:31;;;;;;;0.80;0.80;;;14.20;99.90;;;;;;5016173;28;20279;-61
2022/11/15 11:26:08;;;;;;;0.70;0.70;;;14.20;99.90;;;;;;5013590;28;20210;-63
2022/11/15 11:28:43;;;;;;;0.80;0.80;;;14.20;99.90;;;;;;5008443;28;20197;-64
2022/11/15 11:31:24;;;;;;;0.80;0.80;;;14.20;99.90;;;;;;5022472;28;20595;-63
2022/11/15 11:34:02;;;;;;;0.70;0.70;;;14.20;99.90;;;;;;5019422;28;20271;-62
2022/11/15 11:36:40;;;;;;;0.80;0.80;;;14.20;99.90;;;;;;5002740;28;20201;-64
2022/11/15 11:39:21;;;;;;;0.60;0.60;;;14.30;99.90;;;;;;5010203;28;20296;-66
2022/11/15 11:41:58;;;;;;;0.80;0.80;;;14.30;99.90;;;;;;5021237;28;20228;-65
2022/11/15 11:44:42;;;;;;;0.77;0.77;;;14.30;99.90;;;;;;5014602;28;20201;-64
2022/11/15 11:47:12;;;;;;;0.70;0.70;;;14.40;99.90;;;;;;5022300;28;20199;-65
2022/11/15 11:49:47;;;;;;;0.67;0.67;;;14.30;99.90;;;;;;5015679;28;20400;-66
2022/11/15 11:52:17;;;;;;;0.83;0.83;;;14.30;99.90;;;;;;5021413;28;20207;-65
2022/11/15 11:54:54;;;;;;;0.60;0.60;;;14.40;99.90;;;;;;5014881;28;20217;-64
2022/11/15 11:57:34;;;;;;;0.80;0.80;;;14.40;99.90;;;;;;5014680;28;21110;-62
2022/11/15 12:00:06;;;;;;;1.37;0.90;;;14.40;99.90;;;;;;5013987;28;20219;-63
2022/11/15 12:02:36;;;;;;;1.00;1.00;;;14.50;99.90;;;;;;5007284;28;20284;-65
2022/11/15 12:05:23;;;;;;;1.00;1.00;;;14.50;99.90;;;;;;5013287;28;20585;-63
2022/11/15 12:07:54;;;;;;;1.07;1.03;;;14.50;99.90;;;;;;5014222;28;20327;-63
2022/11/15 12:10:25;;;;;;;1.00;1.00;;;14.60;99.90;;;;;;5013020;28;20679;-63
2022/11/15 12:13:02;;;;;;;0.77;0.77;;;14.60;99.90;;;;;;5014347;28;20528;-63
2022/11/15 12:15:40;;;;;;;0.90;0.90;;;14.60;99.90;;;;;;5010764;28;21391;-64
2022/11/15 12:18:13;;;;;;;0.80;0.80;;;14.70;99.90;;;;;;5014094;28;20240;-62
2022/11/15 12:20:52;;;;;;;0.60;0.60;;;14.70;99.90;;;;;;5013870;28;20232;-64
2022/11/15 12:23:28;;;;;;;0.70;0.70;;;14.70;99.90;;;;;;5013471;28;20204;-63
2022/11/15 12:26:01;;;;;;;0.50;0.50;;;14.80;99.90;;;;;;5013139;28;20205;-65
2022/11/15 12:28:37;;;;;;;0.50;0.50;;;14.90;99.90;;;;;;5011670;28;20213;-63
2022/11/15 12:31:11;;;;;;;0.50;0.50;;;15.00;99.90;;;;;;5013905;28;20237;-64
2022/11/15 12:33:41;;;;;;;0.60;0.60;;;15.10;99.90;;;;;;5008745;28;20217;-66
2022/11/15 12:36:30;;;;;;;0.70;0.70;;;15.10;99.90;;;;;;5013301;28;20205;-63
2022/11/15 12:38:59;;;;;;;0.57;0.57;;;15.20;99.90;;;;;;5009713;28;20735;-63
2022/11/15 12:41:27;;;;;;;0.67;0.67;;;15.30;99.90;;;;;;5009200;28;20236;-66
2022/11/15 12:43:54;;;;;;;0.70;0.70;;;15.30;99.90;;;;;;5003968;28;20202;-65
2022/11/15 12:46:45;;;;;;;0.57;0.57;;;15.30;99.90;;;;;;4998719;28;20202;-65
2022/11/15 12:49:40;;;;;;;0.77;0.77;;;15.30;99.90;;;;;;5010690;28;20236;-65
2022/11/15 12:52:10;;;;;;;0.60;0.60;;;15.40;99.90;;;;;;5011774;28;20221;-64
2022/11/15 12:54:55;;;;;;;0.60;0.60;;;15.40;99.90;;;;;;5012160;28;20217;-64
2022/11/15 12:57:44;;;;;;;0.60;0.60;;;15.40;99.90;;;;;;5003348;28;20293;-65
2022/11/15 13:00:43;;;;;;;0.50;0.50;;;15.40;99.90;;;;;;5003716;28;20599;-64
2022/11/15 13:03:28;;;;;;;0.47;0.47;;;15.30;99.90;;;;;;4997472;28;20213;-66
2022/11/15 13:06:10;;;;;;;0.40;0.40;;;15.40;99.90;;;;;;5009467;28;20233;-64
2022/11/15 13:08:50;;;;;;;0.30;0.30;;;15.30;99.90;;;;;;4998930;28;20220;-63
2022/11/15 13:11:52;;;;;;;0.30;0.30;;;15.40;99.90;;;;;;5000470;28;20595;-65
2022/11/15 13:14:45;;;;;;;0.30;0.30;;;15.50;99.90;;;;;;5002777;28;20217;-63
2022/11/15 13:17:26;;;;;;;0.47;0.47;;;15.50;99.90;;;;;;5006140;28;20216;-63